createdAt,value
2022-08-09T00:01:52.867Z,20.22
2022-08-09T00:05:03.711Z,20.23
2022-08-09T00:08:32.913Z,19.91
2022-08-09T00:12:03.516Z,19.99
2022-08-09T00:15:06.293Z,19.94
2022-08-09T00:18:11.216Z,19.87
2022-08-09T00:21:14.413Z,19.74
2022-08-09T00:24:19.836Z,19.79
2022-08-09T00:27:22.129Z,19.79
2022-08-09T00:30:26.800Z,19.68
2022-08-09T00:33:49.203Z,19.73
2022-08-09T00:36:52.065Z,19.71
2022-08-09T00:40:12.839Z,19.71
2022-08-09T00:44:10.445Z,19.81
2022-08-09T00:46:56.476Z,19.93
2022-08-09T00:50:01.559Z,19.88
2022-08-09T00:53:10.563Z,19.67
2022-08-09T00:56:15.907Z,19.43
2022-08-09T00:59:20.227Z,19.34
2022-08-09T01:02:47.823Z,19.45
2022-08-09T01:06:18.655Z,19.38
2022-08-09T01:09:36.783Z,19.37
2022-08-09T01:12:47.543Z,19.36
2022-08-09T01:15:56.512Z,19.05
2022-08-09T01:19:04.700Z,18.94
2022-08-09T01:22:33.506Z,18.88
2022-08-09T01:25:48.640Z,19.01
2022-08-09T01:28:56.251Z,19.08
2022-08-09T01:32:30.029Z,19.17
2022-08-09T01:35:51.868Z,19.25
2022-08-09T01:38:55.555Z,19.14
2022-08-09T01:42:02.250Z,19.04
2022-08-09T01:45:10.735Z,19.04
2022-08-09T01:48:16.451Z,18.98
2022-08-09T01:51:23.022Z,18.97
2022-08-09T01:54:32.777Z,18.93
2022-08-09T01:57:40.388Z,18.79
2022-08-09T02:00:50.572Z,18.83
2022-08-09T02:03:56.272Z,18.79
2022-08-09T02:07:17.884Z,18.71
2022-08-09T02:10:35.528Z,18.57
2022-08-09T02:13:40.728Z,18.43
2022-08-09T02:16:58.984Z,18.60
2022-08-09T02:20:02.543Z,18.51
2022-08-09T02:23:17.816Z,18.44
2022-08-09T02:26:27.128Z,18.58
2022-08-09T02:29:38.229Z,18.70
2022-08-09T02:32:45.620Z,18.71
2022-08-09T02:36:03.467Z,18.76
2022-08-09T02:39:14.571Z,18.78
2022-08-09T02:42:29.135Z,18.66
2022-08-09T02:45:35.085Z,18.67
2022-08-09T02:48:39.115Z,18.73
2022-08-09T02:51:54.391Z,18.73
2022-08-09T02:54:58.814Z,18.60
2022-08-09T02:58:35.967Z,18.60
2022-08-09T03:01:43.124Z,18.51
2022-08-09T03:04:57.343Z,18.41
2022-08-09T03:08:05.286Z,18.41
2022-08-09T03:11:10.413Z,18.25
2022-08-09T03:14:14.066Z,18.09
2022-08-09T03:17:26.439Z,17.98
2022-08-09T03:20:30.050Z,17.87
2022-08-09T03:23:32.492Z,17.93
2022-08-09T03:26:37.435Z,17.83
2022-08-09T03:30:01.257Z,17.80
2022-08-09T03:33:17.584Z,17.75
2022-08-09T03:36:27.294Z,17.85
2022-08-09T03:39:38.126Z,17.79
2022-08-09T03:42:43.057Z,17.80
2022-08-09T03:46:05.177Z,17.74
2022-08-09T03:49:09.648Z,17.82
2022-08-09T03:52:14.699Z,17.78
2022-08-09T03:55:21.226Z,17.74
2022-08-09T03:58:26.033Z,17.74
2022-08-09T04:01:28.904Z,17.78
2022-08-09T04:04:36.230Z,17.68
2022-08-09T04:07:52.701Z,17.80
2022-08-09T04:11:01.268Z,17.72
2022-08-09T04:14:54.085Z,17.86
2022-08-09T04:17:27.073Z,17.82
2022-08-09T04:20:32.688Z,17.90
2022-08-09T04:23:35.226Z,17.92
2022-08-09T04:26:38.137Z,18.00
2022-08-09T04:29:40.759Z,18.06
2022-08-09T04:32:52.881Z,18.19
2022-08-09T04:35:56.717Z,19.56
2022-08-09T04:39:05.279Z,21.20
2022-08-09T04:42:09.338Z,22.57
2022-08-09T04:45:11.733Z,24.10
2022-08-09T04:48:15.585Z,25.17
2022-08-09T04:51:17.710Z,26.09
2022-08-09T04:54:22.711Z,26.85
2022-08-09T04:57:26.197Z,27.15
2022-08-09T05:00:31.815Z,27.73
2022-08-09T05:03:42.649Z,28.67
2022-08-09T05:06:46.233Z,29.74
2022-08-09T05:09:52.783Z,30.51
2022-08-09T05:12:55.351Z,31.26
2022-08-09T05:15:57.473Z,31.83
2022-08-09T05:19:00.638Z,32.24
2022-08-09T05:22:04.597Z,32.82
2022-08-09T05:25:07.485Z,33.13
2022-08-09T05:28:11.305Z,33.61
2022-08-09T05:31:15.747Z,34.44
2022-08-09T05:34:37.936Z,35.20
2022-08-09T05:37:47.524Z,36.00
2022-08-09T05:40:50.813Z,35.78
2022-08-09T05:43:53.430Z,36.39
2022-08-09T05:46:55.612Z,36.57
2022-08-09T05:50:31.137Z,36.33
2022-08-09T05:53:21.698Z,34.26
2022-08-09T05:56:34.531Z,34.23
2022-08-09T05:59:37.411Z,35.18
2022-08-09T06:02:46.336Z,35.94
2022-08-09T06:05:54.739Z,36.73
2022-08-09T06:09:10.054Z,36.09
2022-08-09T06:12:29.783Z,37.20
2022-08-09T06:15:31.935Z,37.32
2022-08-09T06:18:35.288Z,38.28
2022-08-09T06:21:39.733Z,38.92
2022-08-09T06:24:54.152Z,38.98
2022-08-09T06:27:56.383Z,39.85
2022-08-09T06:30:59.381Z,40.26
2022-08-09T06:34:05.960Z,40.08
2022-08-09T06:37:10.284Z,40.23
2022-08-09T06:40:20.280Z,40.27
2022-08-09T06:43:26.328Z,39.83
2022-08-09T06:46:40.147Z,41.05
2022-08-09T06:50:12.663Z,41.60
2022-08-09T06:53:06.054Z,41.51
2022-08-09T06:56:09.640Z,41.45
2022-08-09T07:00:51.496Z,41.35
2022-08-09T07:02:36.034Z,41.50
2022-08-09T07:05:53.741Z,41.84
2022-08-09T07:09:03.519Z,41.55
2022-08-09T07:12:06.479Z,42.78
2022-08-09T07:15:53.922Z,43.05
2022-08-09T07:18:39.021Z,42.49
2022-08-09T07:21:55.491Z,42.67
2022-08-09T07:25:00.205Z,42.37
2022-08-09T07:28:04.370Z,42.04
2022-08-09T07:31:06.728Z,41.88
2022-08-09T07:34:19.540Z,42.05
2022-08-09T07:37:23.197Z,42.13
2022-08-09T07:40:33.716Z,41.88
2022-08-09T07:43:49.985Z,41.75
2022-08-09T07:46:58.744Z,41.65
2022-08-09T07:50:07.709Z,40.64
2022-08-09T07:53:11.210Z,40.45
2022-08-09T07:56:27.228Z,39.28
2022-08-09T07:59:45.763Z,38.36
2022-08-09T08:02:52.551Z,36.94
2022-08-09T08:05:58.234Z,36.23
2022-08-09T08:09:05.282Z,35.56
2022-08-09T08:12:28.326Z,34.94
2022-08-09T08:15:35.549Z,34.24
2022-08-09T08:18:40.344Z,33.74
2022-08-09T08:21:52.815Z,33.00
2022-08-09T08:24:57.446Z,31.91
2022-08-09T08:27:59.889Z,31.42
2022-08-09T08:31:10.460Z,31.13
2022-08-09T08:34:17.152Z,31.39
2022-08-09T08:37:25.036Z,31.11
2022-08-09T08:40:42.808Z,30.57
2022-08-09T08:43:52.195Z,30.42
2022-08-09T08:47:02.331Z,30.23
2022-08-09T08:50:08.485Z,30.60
2022-08-09T08:53:21.653Z,30.70
2022-08-09T08:56:28.423Z,30.11
2022-08-09T08:59:46.672Z,29.76
2022-08-09T09:02:52.825Z,29.86
2022-08-09T09:05:59.906Z,30.16
2022-08-09T09:09:06.877Z,30.29
2022-08-09T09:12:34.237Z,30.34
2022-08-09T09:15:38.726Z,30.21
2022-08-09T09:18:48.105Z,30.41
2022-08-09T09:22:04.276Z,30.18
2022-08-09T09:26:04.124Z,30.43
2022-08-09T09:29:01.959Z,30.03
2022-08-09T09:32:15.423Z,29.83
2022-08-09T09:35:33.209Z,29.84
2022-08-09T09:39:05.927Z,30.16
2022-08-09T09:42:24.960Z,29.89
2022-08-09T09:50:13.940Z,29.82
2022-08-09T09:53:04.046Z,29.63
2022-08-09T09:56:19.749Z,29.63
2022-08-09T09:59:35.377Z,29.94
2022-08-09T10:02:47.368Z,30.07
2022-08-09T10:06:04.572Z,30.04
2022-08-09T10:09:21.691Z,29.93
2022-08-09T10:12:32.515Z,29.90
2022-08-09T10:16:08.646Z,29.79
2022-08-09T10:19:10.893Z,30.16
2022-08-09T10:22:13.211Z,30.42
2022-08-09T10:25:16.426Z,30.95
2022-08-09T10:28:24.001Z,30.94
2022-08-09T10:34:55.248Z,30.85
2022-08-09T10:38:01.335Z,30.77
2022-08-09T10:41:05.702Z,30.81
2022-08-09T10:44:11.714Z,30.64
2022-08-09T10:48:16.332Z,30.71
2022-08-09T10:51:09.981Z,30.61
2022-08-09T10:54:13.911Z,30.48
2022-08-09T10:57:16.990Z,30.66
2022-08-09T11:03:06.547Z,30.99
2022-08-09T11:04:31.170Z,31.21
2022-08-09T11:07:56.808Z,31.30
2022-08-09T11:11:01.032Z,31.03
2022-08-09T11:14:31.902Z,30.78
2022-08-09T11:17:41.967Z,30.72
2022-08-09T11:20:49.821Z,31.03
2022-08-09T11:24:02.422Z,30.86
2022-08-09T11:28:04.670Z,31.19
2022-08-09T11:30:53.610Z,31.45
2022-08-09T11:33:58.212Z,32.14
2022-08-09T11:37:02.503Z,32.22
2022-08-09T11:40:13.299Z,32.58
2022-08-09T11:43:32.343Z,32.53
2022-08-09T11:46:55.162Z,32.40
2022-08-09T11:50:56.972Z,32.50
2022-08-09T11:53:58.835Z,32.71
2022-08-09T11:56:49.346Z,32.26
2022-08-09T11:59:52.497Z,32.33
2022-08-09T12:02:58.036Z,32.42
2022-08-09T12:06:09.559Z,32.46
2022-08-09T12:09:19.668Z,32.44
2022-08-09T12:12:28.869Z,32.23
2022-08-09T12:15:50.187Z,32.15
2022-08-09T12:18:55.508Z,31.99
2022-08-09T12:22:03.799Z,31.69
2022-08-09T12:25:15.481Z,31.63
2022-08-09T12:29:11.080Z,31.79
2022-08-09T12:32:01.837Z,31.51
2022-08-09T12:35:10.793Z,31.40
2022-08-09T12:38:38.295Z,31.63
2022-08-09T12:41:41.068Z,31.73
2022-08-09T12:44:52.005Z,31.83
2022-08-09T12:47:56.663Z,31.67
2022-08-09T12:51:00.482Z,31.84
2022-08-09T12:54:07.338Z,31.59
2022-08-09T12:57:09.833Z,31.49
2022-08-09T13:00:25.596Z,31.22
2022-08-09T13:03:53.899Z,31.07
2022-08-09T13:07:10.839Z,31.09
2022-08-09T13:10:13.661Z,31.10
2022-08-09T13:13:27.315Z,31.24
2022-08-09T13:16:52.578Z,30.96
2022-08-09T13:20:07.485Z,30.67
2022-08-09T13:24:17.507Z,30.68
2022-08-09T13:26:49.822Z,30.46
2022-08-09T13:30:02.704Z,30.42
2022-08-09T13:33:35.980Z,30.21
2022-08-09T13:36:50.488Z,30.08
2022-08-09T13:41:54.739Z,30.13
2022-08-09T13:43:15.706Z,30.10
2022-08-09T13:47:14.634Z,30.14
2022-08-09T13:49:57.220Z,30.24
2022-08-09T13:53:03.132Z,30.38
2022-08-09T13:56:06.280Z,30.49
2022-08-09T13:59:14.166Z,30.66
2022-08-09T14:02:25.785Z,30.75
2022-08-09T14:06:01.122Z,31.04
2022-08-09T14:08:51.102Z,31.11
2022-08-09T14:11:56.444Z,31.22
2022-08-09T14:14:59.792Z,31.23
2022-08-09T14:18:19.536Z,31.04
2022-08-09T14:21:24.253Z,31.12
2022-08-09T14:24:32.619Z,30.94
2022-08-09T14:27:37.130Z,31.09
2022-08-09T14:30:58.338Z,30.97
2022-08-09T14:34:00.492Z,30.81
2022-08-09T14:37:07.878Z,30.57
2022-08-09T14:40:10.785Z,30.47
2022-08-09T14:43:15.858Z,30.15
2022-08-09T14:46:54.310Z,30.19
2022-08-09T14:50:01.334Z,30.09
2022-08-09T14:53:11.483Z,29.95
2022-08-09T14:56:14.788Z,29.81
2022-08-09T14:59:17.249Z,29.79
2022-08-09T15:02:20.467Z,29.86
2022-08-09T15:05:23.439Z,29.92
2022-08-09T15:08:26.164Z,30.08
2022-08-09T15:11:33.048Z,30.15
2022-08-09T15:14:38.280Z,30.28
2022-08-09T15:17:41.584Z,30.26
2022-08-09T15:21:57.882Z,30.07
2022-08-09T15:24:12.855Z,30.12
2022-08-09T15:27:20.137Z,29.97
2022-08-09T15:30:56.598Z,30.12
2022-08-09T15:34:33.150Z,29.95
2022-08-09T15:37:37.710Z,29.96
2022-08-09T15:40:48.299Z,29.94
2022-08-09T15:43:50.961Z,29.93
2022-08-09T15:46:53.418Z,29.94
2022-08-09T15:50:03.641Z,29.90
2022-08-09T15:54:02.227Z,29.91
2022-08-09T15:56:31.356Z,29.85
2022-08-09T15:59:37.254Z,29.75
2022-08-09T16:02:40.067Z,29.75
2022-08-09T16:05:53.250Z,29.64
2022-08-09T16:09:00.992Z,29.52
2022-08-09T16:12:06.178Z,29.35
2022-08-09T16:16:11.973Z,29.26
2022-08-09T16:18:37.105Z,29.27
2022-08-09T16:21:51.895Z,29.23
2022-08-09T16:24:56.945Z,29.14
2022-08-09T16:28:01.772Z,29.05
2022-08-09T16:31:16.193Z,28.96
2022-08-09T16:34:18.740Z,28.88
2022-08-09T16:37:56.084Z,28.84
2022-08-09T16:40:48.473Z,28.70
2022-08-09T16:43:51.556Z,28.59
2022-08-09T16:46:55.540Z,28.45
2022-08-09T16:50:29.749Z,28.37
2022-08-09T16:53:32.531Z,28.23
2022-08-09T16:56:37.311Z,28.09
2022-08-09T16:59:57.849Z,27.92
2022-08-09T17:03:00.618Z,27.80
2022-08-09T17:06:28.519Z,27.70
2022-08-09T17:09:45.257Z,27.62
2022-08-09T17:12:49.208Z,27.53
2022-08-09T17:15:59.005Z,27.41
2022-08-09T17:19:03.144Z,27.30
2022-08-09T17:22:07.829Z,27.24
2022-08-09T17:25:12.936Z,27.25
2022-08-09T17:28:15.387Z,27.22
2022-08-09T17:31:20.294Z,27.17
2022-08-09T17:34:59.714Z,27.19
2022-08-09T17:38:11.496Z,27.16
2022-08-09T17:41:09.703Z,27.04
2022-08-09T17:44:38.892Z,27.07
2022-08-09T17:47:49.373Z,27.01
2022-08-09T17:50:59.281Z,26.98
2022-08-09T17:54:11.539Z,26.92
2022-08-09T17:58:02.347Z,26.86
2022-08-09T18:00:46.328Z,26.79
2022-08-09T18:03:54.570Z,26.73
2022-08-09T18:06:57.295Z,26.64
2022-08-09T18:10:04.771Z,26.51
2022-08-09T18:13:53.938Z,26.46
2022-08-09T18:16:32.143Z,26.43
2022-08-09T18:20:54.435Z,26.47
2022-08-09T18:22:57.137Z,26.37
2022-08-09T18:26:02.094Z,26.26
2022-08-09T18:30:42.691Z,26.28
2022-08-09T18:32:27.458Z,26.29
2022-08-09T18:35:58.795Z,26.25
2022-08-09T18:38:55.037Z,26.22
2022-08-09T18:42:05.398Z,26.25
2022-08-09T18:45:21.560Z,26.26
2022-08-09T18:48:34.094Z,26.25
2022-08-09T18:51:38.003Z,26.28
2022-08-09T18:54:49.522Z,26.27
2022-08-09T18:57:57.805Z,26.21
2022-08-09T19:01:00.842Z,26.08
2022-08-09T19:04:08.234Z,25.99
2022-08-09T19:07:11.474Z,25.84
2022-08-09T19:10:17.657Z,25.77
2022-08-09T19:13:22.890Z,25.65
2022-08-09T19:16:42.426Z,25.64
2022-08-09T19:19:52.469Z,25.56
2022-08-09T19:23:05.415Z,25.53
2022-08-09T19:26:09.007Z,25.47
2022-08-09T19:29:18.047Z,25.29
2022-08-09T19:32:25.693Z,25.32
2022-08-09T19:35:57.021Z,25.26
2022-08-09T19:38:54.381Z,25.22
2022-08-09T19:41:57.963Z,25.21
2022-08-09T19:45:00.392Z,25.19
2022-08-09T19:48:03.036Z,25.16
2022-08-09T19:51:05.805Z,25.10
2022-08-09T19:54:08.400Z,24.96
2022-08-09T19:57:12.171Z,24.90
2022-08-09T20:00:16.153Z,24.79
2022-08-09T20:04:17.150Z,24.62
2022-08-09T20:06:40.742Z,24.49
2022-08-09T20:09:46.006Z,24.41
2022-08-09T20:12:48.201Z,24.36
2022-08-09T20:16:37.682Z,24.33
2022-08-09T20:19:49.361Z,24.23
2022-08-09T20:22:37.995Z,24.15
2022-08-09T20:25:52.606Z,24.12
2022-08-09T20:28:55.967Z,24.01
2022-08-09T20:32:28.664Z,23.92
2022-08-09T20:35:24.331Z,23.91
2022-08-09T20:38:38.755Z,23.87
2022-08-09T20:41:49.250Z,23.90
2022-08-09T20:45:04.533Z,23.95
2022-08-09T20:48:13.842Z,23.95
2022-08-09T20:51:24.054Z,24.03
2022-08-09T20:54:26.574Z,24.02
2022-08-09T20:57:32.096Z,24.02
2022-08-09T21:00:36.134Z,23.98
2022-08-09T21:05:48.942Z,24.00
2022-08-09T21:07:14.096Z,23.96
2022-08-09T21:10:16.521Z,23.94
2022-08-09T21:13:19.019Z,23.96
2022-08-09T21:16:22.383Z,23.91
2022-08-09T21:20:19.212Z,23.85
2022-08-09T21:22:55.345Z,23.84
2022-08-09T21:26:00.100Z,23.84
2022-08-09T21:29:02.423Z,23.80
2022-08-09T21:32:15.354Z,23.72
2022-08-09T21:35:21.731Z,23.73
2022-08-09T21:38:30.995Z,23.73
2022-08-09T21:42:05.773Z,23.73
2022-08-09T21:44:57.183Z,23.73
2022-08-09T21:48:00.299Z,23.66
2022-08-09T21:51:02.743Z,23.64
2022-08-09T21:54:05.585Z,23.60
2022-08-09T21:57:37.121Z,23.53
2022-08-09T22:00:34.270Z,23.40
2022-08-09T22:03:36.843Z,23.36
2022-08-09T22:06:59.134Z,23.37
2022-08-09T22:10:06.537Z,23.31
2022-08-09T22:13:11.506Z,23.28
2022-08-09T22:16:14.902Z,23.24
2022-08-09T22:19:57.978Z,23.19
2022-08-09T22:22:40.345Z,23.10
2022-08-09T22:26:05.376Z,23.04
2022-08-09T22:29:09.512Z,22.97
2022-08-09T22:32:12.566Z,22.85
2022-08-09T22:36:02.261Z,22.87
2022-08-09T22:38:54.942Z,22.83
2022-08-09T22:41:57.619Z,22.81
2022-08-09T22:48:13.129Z,22.77
2022-08-09T22:48:36.094Z,22.80
2022-08-09T22:51:49.503Z,22.76
2022-08-09T22:54:58.941Z,22.73
2022-08-09T22:58:01.811Z,22.68
2022-08-09T23:01:07.450Z,22.70
2022-08-09T23:04:09.635Z,22.63
2022-08-09T23:08:09.411Z,22.63
2022-08-09T23:10:53.032Z,22.57
2022-08-09T23:13:55.453Z,22.56
2022-08-09T23:16:57.612Z,22.55
2022-08-09T23:20:06.225Z,22.54
2022-08-09T23:23:09.777Z,22.50
2022-08-09T23:26:12.186Z,22.42
2022-08-09T23:29:14.287Z,22.41
2022-08-09T23:32:16.767Z,22.38
2022-08-09T23:35:18.874Z,22.33
2022-08-09T23:38:21.857Z,22.32
2022-08-09T23:41:28.035Z,22.23
2022-08-09T23:44:31.843Z,22.26
2022-08-09T23:47:34.065Z,22.20
2022-08-09T23:50:36.671Z,22.15
2022-08-09T23:53:38.869Z,22.10
